Terminal Aerodrome Forecast
Issued by NWS

Current Version | Previous Version | Text Only | Print | Product List | Glossary On
Versions: 1 2 3 4 5 6 7 8 9 10 11 12 13 14 15 16 17 18 19 20 21 22 23 24
000
FTUS46 KSEW 160524
TAFOLM
TAF
KOLM 160524Z 1606/1706 22005KT P6SM FEW030 SCT100
     FM160900 VRB03KT 5SM BR OVC012
     FM161800 18005KT P6SM BKN025 OVC050=

USA.gov is the U.S. government's official web portal to all federal, state and local government web resources and services.